This is the latest recevied weather packets stored in our database for station/object W1RCP. If no packets are shown the sender has not sent any weather packets the latest 1 day(s).
| Time | Temp. | Humidity | Pressure | Rain* | Wind** | Luminosity | Snow |
|---|---|---|---|---|---|---|---|
| 1778036533 | 18.89° C | 74% | 1026.4 hPa | 0 mm | - | 0 W/m² | - |
| 1778036230 | 19.44° C | 72% | 1026.6 hPa | 0 mm | - | 0 W/m² | - |
| 1778035926 | 19.44° C | 72% | 1026.5 hPa | 0 mm | - | 0 W/m² | - |
| 1778035016 | 20° C | 70% | 1026.2 hPa | 0 mm | - | 0 W/m² | - |
| 1778034410 | 20.56° C | 67% | 1026.2 hPa | 0 mm | - | 0 W/m² | - |
| 1778034108 | 21.11° C | 65% | 1026.1 hPa | 0 mm | - | 0 W/m² | - |
| 1778033806 | 21.11° C | 64% | 1026.2 hPa | 0 mm | - | 0 W/m² | - |
| 1778032291 | 21.11° C | 65% | 1025.8 hPa | 0 mm | - | 0 W/m² | - |
| 1778031989 | 21.67° C | 64% | 1025.9 hPa | 0 mm | - | 0 W/m² | - |
| 1778031684 | 22.22° C | 62% | 1025.7 hPa | 0 mm | - | 0 W/m² | - |
| 1778031383 | 22.78° C | 60% | 1025.6 hPa | 0 mm | - | 0 W/m² | - |
| 1778031079 | 22.78° C | 59% | 1025.6 hPa | 0 mm | - | 0 W/m² | - |
| 1778030776 | 22.78° C | 58% | 1025.7 hPa | 0 mm | - | 0 W/m² | - |
| 1778030472 | 22.78° C | 58% | 1025.7 hPa | 0 mm | - | 0 W/m² | - |
| 1778030170 | 22.78° C | 58% | 1025.5 hPa | 0 mm | - | 0 W/m² | - |
| 1778029866 | 23.33° C | 57% | 1025.3 hPa | 0 mm | - | 0 W/m² | - |
| 1778029566 | 23.33° C | 57% | 1025.3 hPa | 0 mm | - | 0 W/m² | - |
| 1778028655 | 24.44° C | 54% | 1025.5 hPa | 0 mm | - | 0 W/m² | - |
| 1778028049 | 24.44° C | 52% | 1025.3 hPa | 0 mm | - | 0 W/m² | - |
| 1778027442 | 25° C | 51% | 1025.3 hPa | 0 mm | - | 0 W/m² | - |
| 1778026530 | 25.56° C | 48% | 1024.8 hPa | 0 mm | - | 3 W/m² | - |
| 1778022294 | 28.33° C | 39% | 1024.6 hPa | 0 mm | - | 115 W/m² | - |
| 1778018351 | 28.89° C | 36% | 1024.7 hPa | 0 mm | - | 345 W/m² | - |
| 1778017747 | 28.89° C | 37% | 1024.9 hPa | 0 mm | - | 373 W/m² | - |
| 1778016232 | 30° C | 35% | 1024.8 hPa | 0 mm | - | 468 W/m² | - |
* Rain latest hour (hover to see other rain measurements)
** Current wind speed in m/s (hover to see current wind gust speed)